Time;durP1;ratioP1;P1;durP2;ratioP2;P2;SDS_P1;SDS_P2;PMS_P1;PMS_P2;Temp;Humidity;BMP_temperature;BMP_pressure;BME280_temperature;BME280_humidity;BME280_pressure;Samples;Min_cycle;Max_cycle;Signal;HPM_P1;HPM_P2
2021/07/13 00:01:01;;;;;;;0.80;0.70;;;20.50;99.90;;;-143.50;100.00;58913.53;4998511;28;20979;-73
2021/07/13 00:03:29;;;;;;;0.80;0.60;;;20.50;99.90;;;-143.50;100.00;58913.53;5000090;28;20425;-74
2021/07/13 00:05:57;;;;;;;0.80;0.70;;;20.50;99.90;;;-143.50;100.00;58913.53;4999787;28;20807;-73
2021/07/13 00:08:24;;;;;;;0.70;0.60;;;20.50;99.90;;;-143.50;100.00;58913.53;4998043;28;20482;-73
2021/07/13 00:10:53;;;;;;;0.80;0.70;;;20.50;99.90;;;-143.50;100.00;58913.53;4999789;28;20426;-74
2021/07/13 00:13:21;;;;;;;0.77;0.60;;;20.40;99.90;;;-143.50;100.00;58913.53;5013841;28;20438;-73
2021/07/13 00:15:50;;;;;;;0.80;0.70;;;20.10;99.90;;;-143.50;100.00;58913.53;4979007;28;20468;-74
2021/07/13 00:18:20;;;;;;;0.80;0.80;;;19.90;99.90;;;-143.50;100.00;58913.53;4990018;28;20450;-73
2021/07/13 00:20:47;;;;;;;1.00;1.00;;;19.80;99.90;;;-143.50;100.00;58913.53;4999391;28;20834;-74
2021/07/13 00:23:15;;;;;;;0.73;0.63;;;19.60;99.90;;;-143.50;100.00;58913.53;4996568;28;20528;-74
2021/07/13 00:25:43;;;;;;;0.80;0.60;;;19.50;99.90;;;-143.50;100.00;58913.53;4998050;28;20446;-74
2021/07/13 00:28:10;;;;;;;0.80;0.63;;;19.40;99.90;;;-143.50;100.00;58913.53;4998597;28;20442;-73
2021/07/13 00:30:37;;;;;;;0.80;0.60;;;19.30;99.90;;;-143.50;100.00;58913.53;4998247;28;20529;-73
2021/07/13 00:33:05;;;;;;;0.80;0.70;;;19.20;99.90;;;-143.50;100.00;58913.53;4985846;28;20442;-74
2021/07/13 00:35:34;;;;;;;0.80;0.70;;;19.20;99.90;;;-143.50;100.00;58913.53;4996072;28;20458;-74
2021/07/13 00:38:01;;;;;;;0.80;0.70;;;19.20;99.90;;;-143.50;100.00;58913.53;4979180;28;20568;-75
2021/07/13 00:40:29;;;;;;;1.27;1.17;;;19.10;99.90;;;-143.50;100.00;58913.53;4979092;28;20518;-74
2021/07/13 00:42:56;;;;;;;0.80;0.80;;;19.10;99.90;;;-143.50;100.00;58913.53;4995883;28;20470;-74
2021/07/13 00:45:24;;;;;;;0.80;0.70;;;19.00;99.90;;;-143.50;100.00;58913.53;4994966;28;20522;-74
2021/07/13 00:47:53;;;;;;;0.80;0.70;;;19.00;99.90;;;-143.50;100.00;58913.53;5025823;28;20438;-75
2021/07/13 00:50:26;;;;;;;0.70;0.60;;;19.00;99.90;;;-143.50;100.00;58913.53;4979081;28;20451;-74
2021/07/13 00:53:01;;;;;;;0.70;0.60;;;18.90;99.90;;;-143.50;100.00;58913.53;4996134;28;20519;-74
2021/07/13 00:55:29;;;;;;;0.70;0.70;;;18.90;99.90;;;-143.50;100.00;58913.53;4996329;28;20418;-74
2021/07/13 00:57:57;;;;;;;0.70;0.60;;;18.90;99.90;;;-143.50;100.00;58913.53;4994998;28;20431;-74
2021/07/13 01:00:24;;;;;;;0.80;0.70;;;18.80;99.90;;;-143.50;100.00;58913.53;4995404;28;20549;-74
2021/07/13 01:02:56;;;;;;;0.80;0.70;;;18.80;99.90;;;-143.50;100.00;58913.53;4994521;28;20478;-74
2021/07/13 01:05:29;;;;;;;0.70;0.70;;;18.70;99.90;;;-143.50;100.00;58913.53;4994106;28;20423;-74
2021/07/13 01:08:11;;;;;;;0.80;0.70;;;18.70;99.90;;;-143.50;100.00;58913.53;4973530;28;20512;-74
2021/07/13 01:10:51;;;;;;;0.80;0.70;;;18.60;99.90;;;-143.50;100.00;58913.53;4994919;28;20813;-74
2021/07/13 01:13:30;;;;;;;0.70;0.60;;;18.60;99.90;;;-143.50;100.00;58913.53;4994751;28;20445;-74
2021/07/13 01:16:06;;;;;;;0.70;0.70;;;18.60;99.90;;;-143.50;100.00;58913.53;4995532;28;20912;-74
2021/07/13 01:18:40;;;;;;;0.70;0.70;;;18.60;99.90;;;-143.50;100.00;58913.53;4994472;28;20447;-74
2021/07/13 01:21:37;;;;;;;0.70;0.60;;;18.60;99.90;;;-143.50;100.00;58913.53;4994265;28;20906;-75
2021/07/13 01:24:50;;;;;;;0.70;0.60;;;18.50;99.90;;;-143.50;100.00;58913.53;4987309;28;20466;-74
2021/07/13 01:27:51;;;;;;;0.70;0.60;;;18.50;99.90;;;-143.50;100.00;58913.53;4984406;28;20450;-75
2021/07/13 01:30:24;;;;;;;0.80;0.70;;;18.40;99.90;;;-143.50;100.00;58913.53;4978468;28;20439;-74
2021/07/13 01:32:59;;;;;;;0.80;0.70;;;18.40;99.90;;;-143.50;100.00;58913.53;4993755;28;20473;-74
2021/07/13 01:35:40;;;;;;;0.70;0.63;;;18.40;99.90;;;-143.50;100.00;58913.53;4995607;28;20423;-74
2021/07/13 01:38:11;;;;;;;0.70;0.70;;;18.30;99.90;;;-143.50;100.00;58913.53;4993129;28;20520;-74
2021/07/13 01:40:42;;;;;;;1.20;1.10;;;18.30;99.90;;;-143.50;100.00;58913.53;4993373;28;20741;-74
2021/07/13 01:43:11;;;;;;;0.70;0.67;;;18.30;99.90;;;-143.50;100.00;58913.53;4975943;28;20488;-73
2021/07/13 01:45:42;;;;;;;0.70;0.70;;;18.30;99.90;;;-143.50;100.00;58913.53;4982425;28;20445;-73
2021/07/13 01:48:10;;;;;;;0.70;0.70;;;18.20;99.90;;;-143.50;100.00;58913.53;4994709;28;20925;-74
2021/07/13 01:50:40;;;;;;;0.80;0.80;;;18.20;99.90;;;-143.50;100.00;58913.53;4994814;28;20481;-74
2021/07/13 01:53:09;;;;;;;0.70;0.60;;;18.20;99.90;;;-143.50;100.00;58913.53;4994839;28;20517;-73
2021/07/13 01:55:39;;;;;;;0.70;0.60;;;18.10;99.90;;;-143.50;100.00;58913.53;4993187;28;20480;-74
2021/07/13 01:58:06;;;;;;;0.80;0.70;;;18.10;99.90;;;-143.50;100.00;58913.53;4993785;28;20432;-73
2021/07/13 02:00:35;;;;;;;0.83;0.73;;;18.10;99.90;;;-143.50;100.00;58913.53;4994801;28;20427;-73
2021/07/13 02:03:05;;;;;;;0.73;0.70;;;18.10;99.90;;;-143.50;100.00;58913.53;5009404;28;20934;-73
2021/07/13 02:05:34;;;;;;;0.70;0.60;;;18.10;99.90;;;-143.50;100.00;58913.53;4990038;28;20433;-73
2021/07/13 02:08:04;;;;;;;0.70;0.70;;;18.10;99.90;;;-143.50;100.00;58913.53;4994838;28;20961;-74
2021/07/13 02:10:33;;;;;;;0.80;0.70;;;18.00;99.90;;;-143.50;100.00;58913.53;4993208;28;20407;-73
2021/07/13 02:13:00;;;;;;;0.70;0.70;;;18.00;99.90;;;-143.50;100.00;58913.53;4994837;28;20425;-73
2021/07/13 02:15:28;;;;;;;0.70;0.60;;;18.00;99.90;;;-143.50;100.00;58913.53;4991537;28;20456;-73
2021/07/13 02:17:56;;;;;;;0.80;0.80;;;18.00;99.90;;;-143.50;100.00;58913.53;4984222;28;20489;-73
2021/07/13 02:20:25;;;;;;;0.70;0.60;;;18.00;99.90;;;-143.50;100.00;58913.53;4994272;28;20536;-73
2021/07/13 02:22:52;;;;;;;0.80;0.80;;;18.00;99.90;;;-143.50;100.00;58913.53;4992583;28;20873;-73
2021/07/13 02:25:20;;;;;;;0.70;0.60;;;17.90;99.90;;;-143.50;100.00;58913.53;4985633;28;20442;-74
2021/07/13 02:27:57;;;;;;;0.70;0.60;;;17.90;99.90;;;-143.50;100.00;58913.53;4992561;28;20493;-75
2021/07/13 02:30:27;;;;;;;0.70;0.70;;;17.90;99.90;;;-143.50;100.00;58913.53;4992872;28;20493;-75
2021/07/13 02:33:02;;;;;;;0.70;0.60;;;17.80;99.90;;;-143.50;100.00;58913.53;4991112;28;20504;-76
2021/07/13 02:35:39;;;;;;;0.80;0.70;;;17.80;99.90;;;-143.50;100.00;58913.53;4994106;28;20504;-76
2021/07/13 02:38:08;;;;;;;0.80;0.80;;;17.80;99.90;;;-143.50;100.00;58913.53;4993384;28;20517;-78
2021/07/13 02:40:37;;;;;;;0.70;0.70;;;17.90;99.90;;;-143.50;100.00;58913.53;4993898;28;20430;-78
2021/07/13 02:43:06;;;;;;;0.70;0.60;;;17.90;99.90;;;-143.50;100.00;58913.53;4992785;28;20422;-77
2021/07/13 02:45:35;;;;;;;0.70;0.70;;;17.80;99.90;;;-143.50;100.00;58913.53;4976608;28;20460;-78
2021/07/13 02:48:04;;;;;;;0.70;0.70;;;17.80;99.90;;;-143.50;100.00;58913.53;5024058;28;20486;-78
2021/07/13 02:50:33;;;;;;;2.03;1.23;;;17.70;99.90;;;-143.50;100.00;58913.53;4991040;28;20475;-77
2021/07/13 02:53:03;;;;;;;0.70;0.70;;;17.70;99.90;;;-143.50;100.00;58913.53;4993913;28;20485;-77
2021/07/13 02:55:32;;;;;;;0.80;0.70;;;17.70;99.90;;;-143.50;100.00;58913.53;4992249;28;21024;-78
2021/07/13 02:58:02;;;;;;;0.70;0.60;;;17.60;99.90;;;-143.50;100.00;58913.53;4992372;28;20983;-77
2021/07/13 03:00:30;;;;;;;0.70;0.70;;;17.60;99.90;;;-143.50;100.00;58913.53;4993486;28;20878;-78
2021/07/13 03:02:58;;;;;;;0.80;0.70;;;17.60;99.90;;;-143.50;100.00;58913.53;4993236;28;20500;-77
2021/07/13 03:05:27;;;;;;;0.70;0.60;;;17.60;99.90;;;-143.50;100.00;58913.53;5024778;28;20928;-77
2021/07/13 03:07:57;;;;;;;0.70;0.60;;;17.60;99.90;;;-143.50;100.00;58913.53;4990835;28;20465;-77
2021/07/13 03:10:26;;;;;;;0.73;0.70;;;17.60;99.90;;;-143.50;100.00;58913.53;4992411;28;20778;-76
2021/07/13 03:12:55;;;;;;;0.70;0.60;;;17.50;99.90;;;-143.50;100.00;58913.53;4992710;28;20483;-77
2021/07/13 03:15:24;;;;;;;0.70;0.70;;;17.50;99.90;;;-143.50;100.00;58913.53;4992332;28;20493;-76
2021/07/13 03:17:53;;;;;;;0.73;0.70;;;17.50;99.90;;;-143.50;100.00;58913.53;4993521;28;20458;-76
2021/07/13 03:20:22;;;;;;;0.70;0.70;;;17.50;99.90;;;-143.50;100.00;58913.53;4993334;28;20418;-76
2021/07/13 03:22:52;;;;;;;0.80;0.70;;;17.50;99.90;;;-143.50;100.00;58913.53;4978653;28;20796;-76
2021/07/13 03:25:25;;;;;;;0.70;0.70;;;17.50;99.90;;;-143.50;100.00;58913.53;4979920;28;20455;-76
2021/07/13 03:27:55;;;;;;;0.70;0.70;;;17.50;99.90;;;-143.50;100.00;58913.53;4993719;28;20946;-76
2021/07/13 03:30:24;;;;;;;0.70;0.60;;;17.40;99.90;;;-143.50;100.00;58913.53;4992334;28;20796;-76
2021/07/13 03:32:53;;;;;;;0.70;0.70;;;17.40;99.90;;;-143.50;100.00;58913.53;4980356;28;20468;-76
2021/07/13 03:35:21;;;;;;;0.70;0.70;;;17.40;99.90;;;-143.50;100.00;58913.53;4979353;28;20856;-76
2021/07/13 03:37:51;;;;;;;0.70;0.60;;;17.40;99.90;;;-143.50;100.00;58913.53;4991853;28;20991;-75
2021/07/13 03:40:21;;;;;;;0.73;0.70;;;17.40;99.90;;;-143.50;100.00;58913.53;4993447;28;20437;-75
2021/07/13 03:42:50;;;;;;;0.70;0.60;;;17.40;99.90;;;-143.50;100.00;58913.53;4991463;28;20436;-75
2021/07/13 03:45:18;;;;;;;0.77;0.73;;;17.40;99.90;;;-143.50;100.00;58913.53;4975968;28;20493;-75
2021/07/13 03:47:48;;;;;;;0.80;0.70;;;17.40;99.90;;;-143.50;100.00;58913.53;4991869;28;20486;-74
2021/07/13 03:50:17;;;;;;;0.77;0.73;;;17.40;99.90;;;-143.50;100.00;58913.53;5004815;28;21002;-75
2021/07/13 03:52:44;;;;;;;0.70;0.70;;;17.40;99.90;;;-143.50;100.00;58913.53;4968268;28;20464;-75
2021/07/13 03:55:13;;;;;;;0.70;0.60;;;17.40;99.90;;;-143.50;100.00;58913.53;4991171;28;20795;-75
2021/07/13 03:57:41;;;;;;;0.70;0.70;;;17.30;99.90;;;-143.50;100.00;58913.53;4992045;28;20439;-75
2021/07/13 04:00:13;;;;;;;0.80;0.70;;;17.30;99.90;;;-143.50;100.00;58913.53;4991839;28;20448;-74
2021/07/13 04:02:42;;;;;;;0.70;0.70;;;17.30;99.90;;;-143.50;100.00;58913.53;4993010;28;20942;-74
2021/07/13 04:05:12;;;;;;;0.70;0.70;;;17.30;99.90;;;-143.50;100.00;58913.53;4993395;28;20533;-75
2021/07/13 04:07:40;;;;;;;0.70;0.70;;;17.30;99.90;;;-143.50;100.00;58913.53;4993536;28;20419;-75
2021/07/13 04:10:10;;;;;;;0.73;0.70;;;17.30;99.90;;;-143.50;100.00;58913.53;4995632;28;20422;-75
2021/07/13 04:12:38;;;;;;;0.70;0.70;;;17.30;99.90;;;-143.50;100.00;58913.53;4995374;28;20479;-75
2021/07/13 04:15:09;;;;;;;0.70;0.70;;;17.30;99.90;;;-143.50;100.00;58913.53;5028279;28;20432;-74
2021/07/13 04:17:37;;;;;;;0.70;0.60;;;17.30;99.90;;;-143.50;100.00;58913.53;4994225;28;20443;-74
2021/07/13 04:20:07;;;;;;;0.80;0.70;;;17.30;99.90;;;-143.50;100.00;58913.53;4995376;28;20973;-75
2021/07/13 04:22:36;;;;;;;0.70;0.60;;;17.40;99.90;;;-143.50;100.00;58913.53;4986849;28;20486;-75
2021/07/13 04:25:05;;;;;;;0.70;0.60;;;17.40;99.90;;;-143.50;100.00;58913.53;4978266;28;20461;-75
2021/07/13 04:27:33;;;;;;;0.70;0.60;;;17.40;99.90;;;-143.50;100.00;58913.53;4996668;28;20434;-75
2021/07/13 04:30:08;;;;;;;0.70;0.70;;;17.40;99.90;;;-143.50;100.00;58913.53;4996774;28;20416;-76
2021/07/13 04:32:36;;;;;;;0.70;0.60;;;17.40;99.90;;;-143.50;100.00;58913.53;4994143;28;20440;-76
2021/07/13 04:35:05;;;;;;;0.80;0.80;;;17.40;99.90;;;-143.50;100.00;58913.53;4994566;28;20434;-77
2021/07/13 04:37:32;;;;;;;1.73;1.63;;;17.40;99.90;;;-143.50;100.00;58913.53;4995649;28;20437;-76
2021/07/13 04:40:00;;;;;;;0.73;0.73;;;17.40;99.90;;;-143.50;100.00;58913.53;4995094;28;20448;-77
2021/07/13 04:42:27;;;;;;;0.90;0.90;;;17.50;99.90;;;-143.50;100.00;58913.53;4994381;28;20438;-76
2021/07/13 04:44:55;;;;;;;0.70;0.70;;;17.50;99.90;;;-143.50;100.00;58913.53;4994990;28;21021;-77
2021/07/13 04:47:24;;;;;;;1.47;1.37;;;17.40;99.90;;;-143.50;100.00;58913.53;4996026;28;20423;-77
2021/07/13 04:49:51;;;;;;;0.70;0.70;;;17.50;99.90;;;-143.50;100.00;58913.53;4996230;28;20879;-76
2021/07/13 04:52:19;;;;;;;0.70;0.60;;;17.50;99.90;;;-143.50;100.00;58913.53;4995529;28;20503;-77
2021/07/13 04:54:46;;;;;;;0.70;0.70;;;17.50;99.90;;;-143.50;100.00;58913.53;4995373;28;20460;-77
2021/07/13 04:57:18;;;;;;;0.80;0.70;;;17.50;99.90;;;-143.50;100.00;58913.53;4976470;28;20426;-78
2021/07/13 04:59:45;;;;;;;0.70;0.60;;;17.50;99.90;;;-143.50;100.00;58913.53;4984892;28;20463;-78
2021/07/13 05:02:19;;;;;;;0.70;0.70;;;17.50;99.90;;;-143.50;100.00;58913.53;4993726;28;20451;-78
2021/07/13 05:04:48;;;;;;;0.70;0.70;;;17.50;99.90;;;-143.50;100.00;58913.53;4994196;28;20836;-78
2021/07/13 05:07:15;;;;;;;0.70;0.60;;;17.40;99.90;;;-143.50;100.00;58913.53;4995891;28;20965;-78
2021/07/13 05:09:43;;;;;;;0.80;0.73;;;17.40;99.90;;;-143.50;100.00;58913.53;4994705;28;20477;-77
2021/07/13 05:12:10;;;;;;;0.70;0.70;;;17.50;99.90;;;-143.50;100.00;58913.53;5012945;28;20458;-77
2021/07/13 05:14:38;;;;;;;0.70;0.70;;;17.50;99.90;;;-143.50;100.00;58913.53;4991272;28;20481;-78
2021/07/13 05:17:06;;;;;;;0.70;0.70;;;17.50;99.90;;;-143.50;100.00;58913.53;4994139;28;20778;-78
2021/07/13 05:19:34;;;;;;;1.20;1.10;;;17.50;99.90;;;-143.50;100.00;58913.53;4993908;28;20505;-78
2021/07/13 05:22:07;;;;;;;0.70;0.70;;;17.50;99.90;;;-143.50;100.00;58913.53;4974258;28;20531;-78
2021/07/13 05:24:35;;;;;;;0.77;0.77;;;17.50;99.90;;;-143.50;100.00;58913.53;4975243;28;20497;-77
2021/07/13 05:27:03;;;;;;;0.70;0.70;;;17.50;99.90;;;-143.50;100.00;58913.53;4982091;28;20532;-77
2021/07/13 05:29:32;;;;;;;0.70;0.60;;;17.50;99.90;;;-143.50;100.00;58913.53;4989881;28;20498;-77
2021/07/13 05:31:59;;;;;;;0.70;0.60;;;17.50;99.90;;;-143.50;100.00;58913.53;4978828;28;20446;-77
2021/07/13 05:34:27;;;;;;;0.70;0.60;;;17.50;99.90;;;-143.50;100.00;58913.53;4976056;28;20435;-77
2021/07/13 05:36:54;;;;;;;0.70;0.60;;;17.50;99.90;;;-143.50;100.00;58913.53;4981609;28;20533;-77
2021/07/13 05:39:23;;;;;;;0.70;0.70;;;17.60;99.90;;;-143.50;100.00;58913.53;4977708;28;20510;-77
2021/07/13 05:41:51;;;;;;;0.80;0.70;;;17.50;99.90;;;-143.50;100.00;58913.53;4993463;28;20432;-78
2021/07/13 05:44:20;;;;;;;0.70;0.60;;;17.60;99.90;;;-143.50;100.00;58913.53;4993782;28;20458;-77
2021/07/13 05:46:47;;;;;;;0.70;0.70;;;17.60;99.90;;;-143.50;100.00;58913.53;4993424;28;20454;-77
2021/07/13 05:49:15;;;;;;;0.80;0.80;;;17.60;99.90;;;-143.50;100.00;58913.53;4995002;28;20417;-77
2021/07/13 05:51:44;;;;;;;0.70;0.70;;;17.60;99.90;;;-143.50;100.00;58913.53;4990304;28;20439;-77
2021/07/13 05:54:13;;;;;;;0.70;0.70;;;17.60;99.90;;;-143.50;100.00;58913.53;4992372;28;20566;-78
2021/07/13 05:56:42;;;;;;;0.70;0.70;;;17.60;99.90;;;-143.50;100.00;58913.53;4993693;28;20472;-77
2021/07/13 05:59:09;;;;;;;0.80;0.70;;;17.60;99.90;;;-143.50;100.00;58913.53;4993649;28;20456;-77
2021/07/13 06:01:37;;;;;;;0.90;0.87;;;17.60;99.90;;;-143.50;100.00;58913.53;4993838;28;20472;-78
2021/07/13 06:04:05;;;;;;;0.80;0.73;;;17.70;99.90;;;-143.50;100.00;58913.53;4993988;28;20447;-77
2021/07/13 06:06:32;;;;;;;0.70;0.63;;;17.70;99.90;;;-143.50;100.00;58913.53;4989962;28;20444;-77
2021/07/13 06:09:00;;;;;;;0.70;0.70;;;17.70;99.90;;;-143.50;100.00;58913.53;4992516;28;20865;-77
2021/07/13 06:11:27;;;;;;;0.80;0.70;;;17.70;99.90;;;-143.50;100.00;58913.53;4993942;28;20418;-78
2021/07/13 06:13:56;;;;;;;0.70;0.70;;;17.70;99.90;;;-143.50;100.00;58913.53;4987991;28;20794;-78
2021/07/13 06:16:24;;;;;;;0.70;0.70;;;17.70;99.90;;;-143.50;100.00;58913.53;4994412;28;20503;-76
2021/07/13 06:18:51;;;;;;;0.70;0.70;;;17.70;99.90;;;-143.50;100.00;58913.53;4992435;28;20976;-77
2021/07/13 06:21:19;;;;;;;0.70;0.70;;;17.80;99.90;;;-143.50;100.00;58913.53;4994402;28;20541;-77
2021/07/13 06:23:46;;;;;;;0.70;0.70;;;17.80;99.90;;;-143.50;100.00;58913.53;4976588;28;20562;-76
2021/07/13 06:26:14;;;;;;;0.70;0.70;;;17.80;99.90;;;-143.50;100.00;58913.53;5017896;28;20458;-77
2021/07/13 06:28:41;;;;;;;0.70;0.70;;;17.80;99.90;;;-143.50;100.00;58913.53;4982771;28;20444;-78
2021/07/13 06:31:10;;;;;;;0.70;0.70;;;17.70;99.90;;;-143.50;100.00;58913.53;4993567;28;20436;-77
2021/07/13 06:33:39;;;;;;;0.77;0.70;;;17.70;99.90;;;-143.50;100.00;58913.53;4977413;28;20508;-77
2021/07/13 06:36:08;;;;;;;0.70;0.60;;;17.70;99.90;;;-143.50;100.00;58913.53;4978046;28;20882;-77
2021/07/13 06:38:35;;;;;;;0.70;0.60;;;17.70;99.90;;;-143.50;100.00;58913.53;4994152;28;20450;-77
2021/07/13 06:41:03;;;;;;;0.70;0.70;;;17.70;99.90;;;-143.50;100.00;58913.53;4994124;28;20450;-79
2021/07/13 06:43:31;;;;;;;0.70;0.70;;;17.80;99.90;;;-143.50;100.00;58913.53;4971804;28;20459;-80
2021/07/13 06:45:58;;;;;;;0.80;0.73;;;17.80;99.90;;;-143.50;100.00;58913.53;5018200;28;20534;-78
2021/07/13 06:48:27;;;;;;;0.70;0.60;;;17.80;99.90;;;-143.50;100.00;58913.53;4975144;28;20444;-78
2021/07/13 06:50:55;;;;;;;0.70;0.60;;;17.70;99.90;;;-143.50;100.00;58913.53;4992351;28;20886;-79
2021/07/13 06:53:23;;;;;;;0.70;0.60;;;17.70;99.90;;;-143.50;100.00;58913.53;4976135;28;20565;-79
2021/07/13 06:55:50;;;;;;;0.70;0.63;;;17.70;99.90;;;-143.50;100.00;58913.53;4981936;28;20921;-79
2021/07/13 06:58:18;;;;;;;0.70;0.70;;;17.70;99.90;;;-143.50;100.00;58913.53;4991555;28;20470;-78
2021/07/13 07:00:48;;;;;;;0.70;0.70;;;17.70;99.90;;;-143.50;100.00;58913.53;4974799;28;20460;-78
2021/07/13 07:03:16;;;;;;;0.70;0.60;;;17.70;99.90;;;-143.50;100.00;58913.53;4990934;28;20444;-77
2021/07/13 07:05:45;;;;;;;0.70;0.70;;;17.70;99.90;;;-143.50;100.00;58913.53;4980889;28;20989;-77
2021/07/13 07:08:12;;;;;;;0.70;0.60;;;17.70;99.90;;;-143.50;100.00;58913.53;5026240;28;20558;-78
2021/07/13 07:10:40;;;;;;;0.70;0.70;;;17.60;99.90;;;-143.50;100.00;58913.53;4975054;28;20426;-77
2021/07/13 07:13:07;;;;;;;0.70;0.60;;;17.60;99.90;;;-143.50;100.00;58913.53;4974560;28;20494;-77
2021/07/13 07:15:35;;;;;;;0.70;0.70;;;17.60;99.90;;;-143.50;100.00;58913.53;4992501;28;20469;-78
2021/07/13 07:18:03;;;;;;;0.80;0.70;;;17.60;99.90;;;-143.50;100.00;58913.53;4993036;28;20471;-78
2021/07/13 07:20:33;;;;;;;0.70;0.60;;;17.70;99.90;;;-143.50;100.00;58913.53;4975329;28;20438;-78
2021/07/13 07:23:02;;;;;;;0.70;0.70;;;17.70;99.90;;;-143.50;100.00;58913.53;4972690;28;20465;-78
2021/07/13 07:25:32;;;;;;;0.70;0.60;;;17.70;99.90;;;-143.50;100.00;58913.53;4984506;28;20477;-77
2021/07/13 07:28:01;;;;;;;0.77;0.70;;;17.60;99.90;;;-143.50;100.00;58913.53;4990794;28;20816;-77
2021/07/13 07:30:30;;;;;;;0.70;0.70;;;17.60;99.90;;;-143.50;100.00;58913.53;4958017;28;20435;-76
2021/07/13 07:32:58;;;;;;;0.70;0.60;;;17.60;99.90;;;-143.50;100.00;58913.53;4972484;28;20437;-76
2021/07/13 07:35:28;;;;;;;0.70;0.60;;;17.60;99.90;;;-143.50;100.00;58913.53;4983551;28;20783;-76
2021/07/13 07:37:58;;;;;;;0.70;0.70;;;17.60;99.90;;;-143.50;100.00;58913.53;4990519;28;20885;-76
2021/07/13 07:40:27;;;;;;;0.70;0.60;;;17.60;99.90;;;-143.50;100.00;58913.53;4991527;28;20834;-76
2021/07/13 07:42:57;;;;;;;0.70;0.60;;;17.50;99.90;;;-143.50;100.00;58913.53;5007587;28;20445;-76
2021/07/13 07:45:25;;;;;;;0.70;0.60;;;17.50;99.90;;;-143.50;100.00;58913.53;4994520;28;20526;-76
2021/07/13 07:47:52;;;;;;;0.70;0.70;;;17.50;99.90;;;-143.50;100.00;58913.53;4997161;28;20910;-76
2021/07/13 07:50:23;;;;;;;0.70;0.70;;;17.50;99.90;;;-143.50;100.00;58913.53;4993539;28;20437;-76
2021/07/13 07:52:52;;;;;;;0.80;0.80;;;17.50;99.90;;;-143.50;100.00;58913.53;5012376;28;20460;-76
2021/07/13 07:55:21;;;;;;;0.70;0.60;;;17.50;99.90;;;-143.50;100.00;58913.53;4995805;28;20465;-76
2021/07/13 07:57:51;;;;;;;0.70;0.70;;;17.50;99.90;;;-143.50;100.00;58913.53;4997540;28;20517;-76
2021/07/13 08:00:20;;;;;;;0.70;0.60;;;17.50;99.90;;;-143.50;100.00;58913.53;4996724;28;20446;-76
2021/07/13 08:02:47;;;;;;;0.70;0.60;;;17.50;99.90;;;-143.50;100.00;58913.53;4994279;28;20545;-77
2021/07/13 08:05:16;;;;;;;0.70;0.70;;;17.50;99.90;;;-143.50;100.00;58913.53;4995688;28;20876;-77
2021/07/13 08:07:46;;;;;;;0.70;0.60;;;17.50;99.90;;;-143.50;100.00;58913.53;4994448;28;20487;-76
2021/07/13 08:10:15;;;;;;;0.70;0.70;;;17.50;99.90;;;-143.50;100.00;58913.53;4995595;28;20435;-76
2021/07/13 08:12:44;;;;;;;0.70;0.60;;;17.60;99.90;;;-143.50;100.00;58913.53;4996715;28;20434;-76
2021/07/13 08:15:15;;;;;;;0.70;0.63;;;17.60;99.90;;;-143.50;100.00;58913.53;4995673;28;20503;-76
2021/07/13 08:17:45;;;;;;;0.70;0.60;;;17.60;99.90;;;-143.50;100.00;58913.53;5008144;28;20450;-75
2021/07/13 08:20:14;;;;;;;0.70;0.70;;;17.70;99.90;;;-143.50;100.00;58913.53;4995356;28;20522;-75
2021/07/13 08:22:48;;;;;;;0.70;0.70;;;17.80;99.90;;;-143.50;100.00;58913.53;4996728;28;20450;-76
2021/07/13 08:25:18;;;;;;;0.70;0.70;;;17.80;99.90;;;-143.50;100.00;58913.53;4995590;28;20535;-76
2021/07/13 08:27:48;;;;;;;0.70;0.60;;;17.90;99.90;;;-143.50;100.00;58913.53;4996609;28;20462;-75
2021/07/13 08:30:18;;;;;;;0.70;0.60;;;18.00;99.90;;;-143.50;100.00;58913.53;4993845;28;20437;-76
2021/07/13 08:32:46;;;;;;;0.70;0.70;;;18.10;99.90;;;-143.50;100.00;58913.53;4996068;28;20444;-75
2021/07/13 08:35:14;;;;;;;0.70;0.60;;;18.10;99.90;;;-143.50;100.00;58913.53;4996204;28;20442;-75
2021/07/13 08:37:42;;;;;;;0.70;0.60;;;18.20;99.90;;;-143.50;100.00;58913.53;4991666;28;20530;-75
2021/07/13 08:40:12;;;;;;;0.70;0.60;;;18.30;99.90;;;-143.50;100.00;58913.53;4996597;28;20516;-76
2021/07/13 08:42:42;;;;;;;0.70;0.60;;;18.50;99.90;;;-143.50;100.00;58913.53;4997760;28;20438;-75
2021/07/13 08:45:14;;;;;;;0.70;0.60;;;18.60;99.90;;;-143.50;100.00;58913.53;4996915;28;20445;-76
2021/07/13 08:47:48;;;;;;;0.70;0.70;;;18.70;99.90;;;-143.50;100.00;58913.53;5025783;28;20566;-75
2021/07/13 08:50:18;;;;;;;0.70;0.60;;;18.80;99.90;;;-143.50;100.00;58913.53;4976703;28;20436;-75
2021/07/13 08:52:46;;;;;;;0.70;0.67;;;18.80;99.90;;;-143.50;100.00;58913.53;4976704;28;20783;-75
2021/07/13 08:55:15;;;;;;;0.70;0.60;;;18.90;99.90;;;-143.50;100.00;58913.53;4985928;28;20493;-75
2021/07/13 08:57:44;;;;;;;0.70;0.70;;;19.00;99.90;;;-143.50;100.00;58913.53;4995227;28;20431;-75
2021/07/13 09:00:15;;;;;;;0.70;0.70;;;19.10;99.90;;;-143.50;100.00;58913.53;4997281;28;20450;-75
2021/07/13 09:03:08;;;;;;;0.70;0.70;;;19.20;99.90;;;-143.50;100.00;58913.53;4995876;28;20463;-74
2021/07/13 09:05:45;;;;;;;0.80;0.70;;;19.20;99.90;;;-143.50;100.00;58913.53;4996817;28;20491;-75
2021/07/13 09:08:21;;;;;;;0.70;0.60;;;19.20;99.90;;;-143.50;100.00;58913.53;4995203;28;20851;-74
2021/07/13 09:11:08;;;;;;;0.70;0.70;;;19.30;99.90;;;-143.50;100.00;58913.53;4997253;28;20394;-75
2021/07/13 09:13:39;;;;;;;0.70;0.60;;;19.40;99.90;;;-143.50;100.00;58913.53;4995416;28;20431;-76
2021/07/13 09:16:10;;;;;;;0.70;0.60;;;19.80;99.90;;;-143.50;100.00;58913.53;4995159;28;20500;-76
2021/07/13 09:18:43;;;;;;;1.70;1.10;;;20.10;99.90;;;-143.50;100.00;58913.53;4978610;28;20428;-75
2021/07/13 09:21:18;;;;;;;0.70;0.60;;;20.50;99.90;;;-143.50;100.00;58913.53;4995665;28;20419;-76
2021/07/13 09:24:07;;;;;;;0.80;0.70;;;20.70;99.90;;;-143.50;100.00;58913.53;4995558;28;20513;-76
2021/07/13 09:26:43;;;;;;;0.70;0.60;;;20.90;99.90;;;-143.50;100.00;58913.53;4994749;28;20470;-75
2021/07/13 09:29:46;;;;;;;0.70;0.70;;;21.10;99.90;;;-143.50;100.00;58913.53;4985827;28;20427;-76
2021/07/13 09:32:29;;;;;;;0.70;0.70;;;21.10;99.90;;;-143.50;100.00;58913.53;4996262;28;20451;-75
2021/07/13 09:35:01;;;;;;;0.70;0.63;;;21.20;99.90;;;-143.50;100.00;58913.53;4995038;28;20942;-75
2021/07/13 09:37:31;;;;;;;0.70;0.60;;;21.30;99.90;;;-143.50;100.00;58913.53;4992530;28;20440;-75
2021/07/13 09:40:04;;;;;;;0.77;0.70;;;21.60;99.90;;;-143.50;100.00;58913.53;4985176;28;20437;-77
2021/07/13 09:42:34;;;;;;;0.70;0.60;;;21.80;99.90;;;-143.50;100.00;58913.53;4995612;28;20431;-76
2021/07/13 09:45:24;;;;;;;0.70;0.60;;;21.90;99.90;;;-143.50;100.00;58913.53;4997226;28;20453;-76
2021/07/13 09:47:53;;;;;;;0.80;0.70;;;22.00;99.90;;;-143.50;100.00;58913.53;4990546;28;20451;-75
2021/07/13 09:50:39;;;;;;;0.73;0.60;;;22.00;99.90;;;-143.50;100.00;58913.53;4976283;28;20547;-76
2021/07/13 09:53:09;;;;;;;0.73;0.70;;;21.90;99.90;;;-143.50;100.00;58913.53;4976346;28;20444;-75
2021/07/13 09:55:38;;;;;;;0.70;0.60;;;22.10;99.90;;;-143.50;100.00;58913.53;4991101;28;20442;-77
2021/07/13 09:58:19;;;;;;;0.70;0.60;;;22.40;99.90;;;-143.50;100.00;58913.53;4993827;28;20537;-76
2021/07/13 10:00:49;;;;;;;0.70;0.60;;;22.60;99.90;;;-143.50;100.00;58913.53;5000885;28;20538;-76
2021/07/13 10:03:18;;;;;;;0.70;0.60;;;22.90;99.90;;;-143.50;100.00;58913.53;5010095;28;20459;-76
2021/07/13 10:05:50;;;;;;;0.70;0.57;;;23.00;99.90;;;-143.50;100.00;58913.53;4995467;28;20473;-76
2021/07/13 10:08:22;;;;;;;0.70;0.50;;;23.10;99.90;;;-143.50;100.00;58913.53;5010118;28;20451;-76
2021/07/13 10:10:50;;;;;;;0.70;0.60;;;23.20;99.90;;;-143.50;100.00;58913.53;4994731;28;20412;-76
2021/07/13 10:13:19;;;;;;;0.70;0.60;;;23.50;99.90;;;-143.50;100.00;58913.53;4994869;28;20435;-76